sensor_id;sensor_type;location;lat;lon;timestamp;temperature;humidity
64705;DHT22;51131;52.298;13.686;2022-10-16T00:00:20;19.50;72.10
64705;DHT22;51131;52.298;13.686;2022-10-16T00:02:47;19.70;72.30
64705;DHT22;51131;52.298;13.686;2022-10-16T00:05:14;19.60;72.30
64705;DHT22;51131;52.298;13.686;2022-10-16T00:07:40;19.70;72.40
64705;DHT22;51131;52.298;13.686;2022-10-16T00:10:07;19.70;72.40
64705;DHT22;51131;52.298;13.686;2022-10-16T00:12:34;19.70;72.40
64705;DHT22;51131;52.298;13.686;2022-10-16T00:15:01;19.60;72.30
64705;DHT22;51131;52.298;13.686;2022-10-16T00:17:27;19.70;72.40
64705;DHT22;51131;52.298;13.686;2022-10-16T00:19:55;19.70;72.50
64705;DHT22;51131;52.298;13.686;2022-10-16T00:22:23;19.60;72.40
64705;DHT22;51131;52.298;13.686;2022-10-16T00:24:50;20.20;73.00
64705;DHT22;51131;52.298;13.686;2022-10-16T00:27:17;19.70;72.50
64705;DHT22;51131;52.298;13.686;2022-10-16T00:29:44;19.60;72.40
64705;DHT22;51131;52.298;13.686;2022-10-16T00:32:10;19.60;72.50
64705;DHT22;51131;52.298;13.686;2022-10-16T00:34:37;19.60;72.40
64705;DHT22;51131;52.298;13.686;2022-10-16T00:37:04;19.60;72.40
64705;DHT22;51131;52.298;13.686;2022-10-16T00:39:30;19.60;72.40
64705;DHT22;51131;52.298;13.686;2022-10-16T00:41:57;19.60;73.10
64705;DHT22;51131;52.298;13.686;2022-10-16T00:44:43;19.60;72.50
64705;DHT22;51131;52.298;13.686;2022-10-16T00:47:11;19.60;72.50
64705;DHT22;51131;52.298;13.686;2022-10-16T00:49:39;20.00;72.90
64705;DHT22;51131;52.298;13.686;2022-10-16T00:52:05;19.60;72.50
64705;DHT22;51131;52.298;13.686;2022-10-16T00:54:32;19.60;72.60
64705;DHT22;51131;52.298;13.686;2022-10-16T00:57:01;19.60;72.50
64705;DHT22;51131;52.298;13.686;2022-10-16T00:59:29;19.60;72.60
64705;DHT22;51131;52.298;13.686;2022-10-16T01:01:56;19.60;72.60
64705;DHT22;51131;52.298;13.686;2022-10-16T01:04:23;19.60;72.60
64705;DHT22;51131;52.298;13.686;2022-10-16T01:09:21;19.90;72.80
64705;DHT22;51131;52.298;13.686;2022-10-16T01:11:52;19.60;72.60
64705;DHT22;51131;52.298;13.686;2022-10-16T01:14:25;19.70;72.70
64705;DHT22;51131;52.298;13.686;2022-10-16T01:16:55;20.00;73.00
64705;DHT22;51131;52.298;13.686;2022-10-16T01:22:20;19.60;72.50
64705;DHT22;51131;52.298;13.686;2022-10-16T01:24:49;19.60;72.60
64705;DHT22;51131;52.298;13.686;2022-10-16T01:27:28;19.60;72.60
64705;DHT22;51131;52.298;13.686;2022-10-16T01:30:07;19.60;72.70
64705;DHT22;51131;52.298;13.686;2022-10-16T01:32:38;19.60;72.60
64705;DHT22;51131;52.298;13.686;2022-10-16T01:35:11;19.60;72.60
64705;DHT22;51131;52.298;13.686;2022-10-16T01:37:39;19.60;72.60
64705;DHT22;51131;52.298;13.686;2022-10-16T01:40:09;19.60;72.70
64705;DHT22;51131;52.298;13.686;2022-10-16T01:42:45;19.60;72.60
64705;DHT22;51131;52.298;13.686;2022-10-16T01:45:13;19.60;72.70
64705;DHT22;51131;52.298;13.686;2022-10-16T01:47:41;19.60;72.70
64705;DHT22;51131;52.298;13.686;2022-10-16T01:50:10;19.60;72.70
64705;DHT22;51131;52.298;13.686;2022-10-16T01:52:39;19.90;73.00
64705;DHT22;51131;52.298;13.686;2022-10-16T01:55:07;19.60;72.70
64705;DHT22;51131;52.298;13.686;2022-10-16T01:57:36;19.60;72.70
64705;DHT22;51131;52.298;13.686;2022-10-16T02:00:07;19.70;72.90
64705;DHT22;51131;52.298;13.686;2022-10-16T02:02:35;19.60;72.80
64705;DHT22;51131;52.298;13.686;2022-10-16T02:05:08;19.60;72.70
64705;DHT22;51131;52.298;13.686;2022-10-16T02:07:37;19.60;72.70
64705;DHT22;51131;52.298;13.686;2022-10-16T02:10:04;20.30;73.50
64705;DHT22;51131;52.298;13.686;2022-10-16T02:12:31;19.60;72.70
64705;DHT22;51131;52.298;13.686;2022-10-16T02:14:59;19.70;72.90
64705;DHT22;51131;52.298;13.686;2022-10-16T02:17:26;19.60;72.80
64705;DHT22;51131;52.298;13.686;2022-10-16T02:19:54;19.60;72.80
64705;DHT22;51131;52.298;13.686;2022-10-16T02:22:28;19.60;72.80
64705;DHT22;51131;52.298;13.686;2022-10-16T02:25:02;19.60;72.80
64705;DHT22;51131;52.298;13.686;2022-10-16T02:27:38;19.60;72.70
64705;DHT22;51131;52.298;13.686;2022-10-16T02:30:08;19.60;72.80
64705;DHT22;51131;52.298;13.686;2022-10-16T02:32:36;19.60;72.70
64705;DHT22;51131;52.298;13.686;2022-10-16T02:35:03;19.90;73.10
64705;DHT22;51131;52.298;13.686;2022-10-16T02:37:30;19.60;72.80
64705;DHT22;51131;52.298;13.686;2022-10-16T02:39:57;19.60;72.80
64705;DHT22;51131;52.298;13.686;2022-10-16T02:42:42;19.60;72.80
64705;DHT22;51131;52.298;13.686;2022-10-16T02:45:10;19.60;72.90
64705;DHT22;51131;52.298;13.686;2022-10-16T02:47:37;19.60;72.70
64705;DHT22;51131;52.298;13.686;2022-10-16T02:50:03;19.40;72.60
64705;DHT22;51131;52.298;13.686;2022-10-16T02:52:30;19.60;73.00
64705;DHT22;51131;52.298;13.686;2022-10-16T02:54:57;20.00;73.20
64705;DHT22;51131;52.298;13.686;2022-10-16T02:57:23;19.80;73.00
64705;DHT22;51131;52.298;13.686;2022-10-16T02:59:51;19.60;72.80
64705;DHT22;51131;52.298;13.686;2022-10-16T03:02:17;19.70;72.90
64705;DHT22;51131;52.298;13.686;2022-10-16T03:04:44;19.60;72.80
64705;DHT22;51131;52.298;13.686;2022-10-16T03:07:11;19.90;73.10
64705;DHT22;51131;52.298;13.686;2022-10-16T03:09:38;19.60;72.90
64705;DHT22;51131;52.298;13.686;2022-10-16T03:12:04;19.60;72.90
64705;DHT22;51131;52.298;13.686;2022-10-16T03:14:31;19.60;72.80
64705;DHT22;51131;52.298;13.686;2022-10-16T03:16:58;20.40;73.60
64705;DHT22;51131;52.298;13.686;2022-10-16T03:19:24;19.60;72.90
64705;DHT22;51131;52.298;13.686;2022-10-16T03:21:51;19.60;72.90
64705;DHT22;51131;52.298;13.686;2022-10-16T03:24:18;19.60;72.90
64705;DHT22;51131;52.298;13.686;2022-10-16T03:26:44;19.60;72.90
64705;DHT22;51131;52.298;13.686;2022-10-16T03:29:11;19.60;72.90
64705;DHT22;51131;52.298;13.686;2022-10-16T03:31:38;19.60;72.90
64705;DHT22;51131;52.298;13.686;2022-10-16T03:34:04;19.50;72.90
64705;DHT22;51131;52.298;13.686;2022-10-16T03:36:31;19.50;72.90
64705;DHT22;51131;52.298;13.686;2022-10-16T03:38:58;19.60;72.90
64705;DHT22;51131;52.298;13.686;2022-10-16T03:41:24;19.50;72.80
64705;DHT22;51131;52.298;13.686;2022-10-16T03:43:51;20.10;73.40
64705;DHT22;51131;52.298;13.686;2022-10-16T03:46:17;19.60;72.90
64705;DHT22;51131;52.298;13.686;2022-10-16T03:48:44;19.70;73.00
64705;DHT22;51131;52.298;13.686;2022-10-16T03:51:11;19.50;72.80
64705;DHT22;51131;52.298;13.686;2022-10-16T03:53:37;19.60;72.80
64705;DHT22;51131;52.298;13.686;2022-10-16T03:56:04;19.90;73.00
64705;DHT22;51131;52.298;13.686;2022-10-16T03:58:31;19.60;72.60
64705;DHT22;51131;52.298;13.686;2022-10-16T04:00:58;19.70;72.60
64705;DHT22;51131;52.298;13.686;2022-10-16T04:03:25;19.70;72.50
64705;DHT22;51131;52.298;13.686;2022-10-16T04:05:51;19.70;72.30
64705;DHT22;51131;52.298;13.686;2022-10-16T04:08:18;19.70;72.30
64705;DHT22;51131;52.298;13.686;2022-10-16T04:10:45;19.80;72.50
64705;DHT22;51131;52.298;13.686;2022-10-16T04:13:12;19.80;72.40
64705;DHT22;51131;52.298;13.686;2022-10-16T04:15:38;20.10;72.80
64705;DHT22;51131;52.298;13.686;2022-10-16T04:18:05;20.20;72.80
64705;DHT22;51131;52.298;13.686;2022-10-16T04:20:32;19.80;72.50
64705;DHT22;51131;52.298;13.686;2022-10-16T04:22:59;19.80;72.30
64705;DHT22;51131;52.298;13.686;2022-10-16T04:25:26;19.80;72.20
64705;DHT22;51131;52.298;13.686;2022-10-16T04:27:53;19.80;72.20
64705;DHT22;51131;52.298;13.686;2022-10-16T04:30:21;20.30;72.60
64705;DHT22;51131;52.298;13.686;2022-10-16T04:32:51;19.80;72.30
64705;DHT22;51131;52.298;13.686;2022-10-16T04:35:19;19.90;72.30
64705;DHT22;51131;52.298;13.686;2022-10-16T04:37:46;19.80;72.20
64705;DHT22;51131;52.298;13.686;2022-10-16T04:40:12;19.80;72.40
64705;DHT22;51131;52.298;13.686;2022-10-16T04:42:39;19.80;72.30
64705;DHT22;51131;52.298;13.686;2022-10-16T04:45:06;19.90;72.30
64705;DHT22;51131;52.298;13.686;2022-10-16T04:47:39;19.80;72.10
64705;DHT22;51131;52.298;13.686;2022-10-16T04:50:06;19.90;72.30
64705;DHT22;51131;52.298;13.686;2022-10-16T04:52:32;19.80;72.30
64705;DHT22;51131;52.298;13.686;2022-10-16T04:55:00;19.90;72.40
64705;DHT22;51131;52.298;13.686;2022-10-16T04:57:29;19.90;72.40
64705;DHT22;51131;52.298;13.686;2022-10-16T04:59:55;19.90;72.30
64705;DHT22;51131;52.298;13.686;2022-10-16T05:02:22;20.00;72.50
64705;DHT22;51131;52.298;13.686;2022-10-16T05:04:49;20.40;72.80
64705;DHT22;51131;52.298;13.686;2022-10-16T05:07:15;20.20;72.50
64705;DHT22;51131;52.298;13.686;2022-10-16T05:09:42;20.10;72.50
64705;DHT22;51131;52.298;13.686;2022-10-16T05:12:09;19.90;72.30
64705;DHT22;51131;52.298;13.686;2022-10-16T05:14:36;19.90;72.30
64705;DHT22;51131;52.298;13.686;2022-10-16T05:17:02;19.90;72.40
64705;DHT22;51131;52.298;13.686;2022-10-16T05:19:29;19.90;72.40
64705;DHT22;51131;52.298;13.686;2022-10-16T05:21:56;19.80;72.20
64705;DHT22;51131;52.298;13.686;2022-10-16T05:24:22;20.30;72.80
64705;DHT22;51131;52.298;13.686;2022-10-16T05:26:49;19.90;72.30
64705;DHT22;51131;52.298;13.686;2022-10-16T05:29:16;19.90;72.30
64705;DHT22;51131;52.298;13.686;2022-10-16T05:31:43;19.90;72.30
64705;DHT22;51131;52.298;13.686;2022-10-16T05:34:09;19.90;72.30
64705;DHT22;51131;52.298;13.686;2022-10-16T05:36:36;19.90;72.30
64705;DHT22;51131;52.298;13.686;2022-10-16T05:39:03;19.90;72.40
64705;DHT22;51131;52.298;13.686;2022-10-16T05:41:30;19.80;72.20
64705;DHT22;51131;52.298;13.686;2022-10-16T05:43:56;19.80;72.30
64705;DHT22;51131;52.298;13.686;2022-10-16T05:46:23;19.90;72.30
64705;DHT22;51131;52.298;13.686;2022-10-16T05:48:51;19.90;72.20
64705;DHT22;51131;52.298;13.686;2022-10-16T05:51:18;19.90;72.30
64705;DHT22;51131;52.298;13.686;2022-10-16T05:53:45;19.90;72.30
64705;DHT22;51131;52.298;13.686;2022-10-16T05:56:12;19.80;72.20
64705;DHT22;51131;52.298;13.686;2022-10-16T05:58:39;19.90;72.30
64705;DHT22;51131;52.298;13.686;2022-10-16T06:01:10;19.90;72.30
64705;DHT22;51131;52.298;13.686;2022-10-16T06:03:37;20.30;72.80
64705;DHT22;51131;52.298;13.686;2022-10-16T06:06:07;19.80;72.20
64705;DHT22;51131;52.298;13.686;2022-10-16T06:08:38;19.90;72.30
64705;DHT22;51131;52.298;13.686;2022-10-16T06:11:05;19.90;72.30
64705;DHT22;51131;52.298;13.686;2022-10-16T06:13:33;19.90;72.30
64705;DHT22;51131;52.298;13.686;2022-10-16T06:15:59;19.90;72.20
64705;DHT22;51131;52.298;13.686;2022-10-16T06:18:27;20.70;73.00
64705;DHT22;51131;52.298;13.686;2022-10-16T06:20:54;20.10;72.40
64705;DHT22;51131;52.298;13.686;2022-10-16T06:23:21;19.90;72.30
64705;DHT22;51131;52.298;13.686;2022-10-16T06:25:48;20.10;72.40
64705;DHT22;51131;52.298;13.686;2022-10-16T06:28:15;19.90;72.20
64705;DHT22;51131;52.298;13.686;2022-10-16T06:30:42;19.90;72.30
64705;DHT22;51131;52.298;13.686;2022-10-16T06:33:12;19.90;72.20
64705;DHT22;51131;52.298;13.686;2022-10-16T06:35:39;19.90;72.20
64705;DHT22;51131;52.298;13.686;2022-10-16T06:38:05;19.90;72.20
64705;DHT22;51131;52.298;13.686;2022-10-16T06:40:32;19.90;72.20
64705;DHT22;51131;52.298;13.686;2022-10-16T06:42:59;19.90;72.30
64705;DHT22;51131;52.298;13.686;2022-10-16T06:45:26;19.90;72.30
64705;DHT22;51131;52.298;13.686;2022-10-16T06:47:52;19.90;72.30
64705;DHT22;51131;52.298;13.686;2022-10-16T06:50:19;19.90;72.30
64705;DHT22;51131;52.298;13.686;2022-10-16T06:52:46;20.00;72.30
64705;DHT22;51131;52.298;13.686;2022-10-16T06:55:12;20.00;72.30
64705;DHT22;51131;52.298;13.686;2022-10-16T06:57:39;19.90;72.30
64705;DHT22;51131;52.298;13.686;2022-10-16T07:00:06;19.90;72.30
64705;DHT22;51131;52.298;13.686;2022-10-16T07:02:33;19.90;72.50
64705;DHT22;51131;52.298;13.686;2022-10-16T07:05:00;19.90;72.50
64705;DHT22;51131;52.298;13.686;2022-10-16T07:07:26;19.90;72.40
64705;DHT22;51131;52.298;13.686;2022-10-16T07:09:53;19.90;72.40
64705;DHT22;51131;52.298;13.686;2022-10-16T07:12:20;20.00;72.50
64705;DHT22;51131;52.298;13.686;2022-10-16T07:14:46;20.00;72.60
64705;DHT22;51131;52.298;13.686;2022-10-16T07:17:13;20.10;72.50
64705;DHT22;51131;52.298;13.686;2022-10-16T07:19:40;20.20;72.30
64705;DHT22;51131;52.298;13.686;2022-10-16T07:22:07;20.40;72.30
64705;DHT22;51131;52.298;13.686;2022-10-16T07:24:33;20.30;72.00
64705;DHT22;51131;52.298;13.686;2022-10-16T07:27:00;20.30;71.90
64705;DHT22;51131;52.298;13.686;2022-10-16T07:29:27;20.30;71.80
64705;DHT22;51131;52.298;13.686;2022-10-16T07:31:53;21.00;72.50
64705;DHT22;51131;52.298;13.686;2022-10-16T07:34:20;20.30;71.90
64705;DHT22;51131;52.298;13.686;2022-10-16T07:36:49;20.30;72.00
64705;DHT22;51131;52.298;13.686;2022-10-16T07:39:16;20.20;72.00
64705;DHT22;51131;52.298;13.686;2022-10-16T07:41:43;20.20;72.10
64705;DHT22;51131;52.298;13.686;2022-10-16T07:44:09;20.20;72.20
64705;DHT22;51131;52.298;13.686;2022-10-16T07:46:36;20.20;72.20
64705;DHT22;51131;52.298;13.686;2022-10-16T07:49:03;20.20;72.20
64705;DHT22;51131;52.298;13.686;2022-10-16T07:51:30;20.20;72.30
64705;DHT22;51131;52.298;13.686;2022-10-16T07:53:57;20.20;72.40
64705;DHT22;51131;52.298;13.686;2022-10-16T07:56:24;20.20;72.50
64705;DHT22;51131;52.298;13.686;2022-10-16T07:58:50;20.80;73.10
64705;DHT22;51131;52.298;13.686;2022-10-16T08:01:17;20.70;73.20
64705;DHT22;51131;52.298;13.686;2022-10-16T08:03:45;20.20;72.80
64705;DHT22;51131;52.298;13.686;2022-10-16T08:06:12;20.20;72.70
64705;DHT22;51131;52.298;13.686;2022-10-16T08:08:39;20.20;72.70
64705;DHT22;51131;52.298;13.686;2022-10-16T08:11:06;20.20;72.90
64705;DHT22;51131;52.298;13.686;2022-10-16T08:13:33;20.20;72.80
64705;DHT22;51131;52.298;13.686;2022-10-16T08:16:00;20.20;72.90
64705;DHT22;51131;52.298;13.686;2022-10-16T08:18:27;20.20;72.90
64705;DHT22;51131;52.298;13.686;2022-10-16T08:20:57;20.20;73.00
64705;DHT22;51131;52.298;13.686;2022-10-16T08:23:24;20.20;73.10
64705;DHT22;51131;52.298;13.686;2022-10-16T08:25:55;20.30;73.00
64705;DHT22;51131;52.298;13.686;2022-10-16T08:28:23;20.20;73.00
64705;DHT22;51131;52.298;13.686;2022-10-16T08:30:49;20.30;73.00
64705;DHT22;51131;52.298;13.686;2022-10-16T08:33:16;20.20;72.90
64705;DHT22;51131;52.298;13.686;2022-10-16T08:35:49;20.40;73.20
64705;DHT22;51131;52.298;13.686;2022-10-16T08:38:16;20.10;73.00
64705;DHT22;51131;52.298;13.686;2022-10-16T08:40:43;20.20;73.10
64705;DHT22;51131;52.298;13.686;2022-10-16T08:43:16;20.20;73.20
64705;DHT22;51131;52.298;13.686;2022-10-16T08:48:36;20.20;73.20
64705;DHT22;51131;52.298;13.686;2022-10-16T08:51:07;20.20;73.30
64705;DHT22;51131;52.298;13.686;2022-10-16T08:53:43;20.20;73.30
64705;DHT22;51131;52.298;13.686;2022-10-16T08:56:11;20.20;73.30
64705;DHT22;51131;52.298;13.686;2022-10-16T08:58:37;20.40;73.60
64705;DHT22;51131;52.298;13.686;2022-10-16T09:01:09;20.10;73.40
64705;DHT22;51131;52.298;13.686;2022-10-16T09:04:01;20.10;73.60
64705;DHT22;51131;52.298;13.686;2022-10-16T09:06:31;20.10;73.40
64705;DHT22;51131;52.298;13.686;2022-10-16T09:14:43;20.20;73.60
64705;DHT22;51131;52.298;13.686;2022-10-16T09:19:52;20.20;73.80
64705;DHT22;51131;52.298;13.686;2022-10-16T09:22:20;20.10;73.60
64705;DHT22;51131;52.298;13.686;2022-10-16T09:24:48;20.50;74.20
64705;DHT22;51131;52.298;13.686;2022-10-16T09:27:15;20.20;73.80
64705;DHT22;51131;52.298;13.686;2022-10-16T09:29:41;20.50;73.90
64705;DHT22;51131;52.298;13.686;2022-10-16T09:32:12;20.20;73.60
64705;DHT22;51131;52.298;13.686;2022-10-16T09:34:45;20.20;73.70
64705;DHT22;51131;52.298;13.686;2022-10-16T09:37:14;20.20;73.80
64705;DHT22;51131;52.298;13.686;2022-10-16T09:39:50;20.20;73.90
64705;DHT22;51131;52.298;13.686;2022-10-16T09:42:17;20.20;73.80
64705;DHT22;51131;52.298;13.686;2022-10-16T09:44:47;20.50;74.10
64705;DHT22;51131;52.298;13.686;2022-10-16T09:47:15;20.50;74.20
64705;DHT22;51131;52.298;13.686;2022-10-16T09:49:51;20.40;74.10
64705;DHT22;51131;52.298;13.686;2022-10-16T09:52:18;20.20;73.70
64705;DHT22;51131;52.298;13.686;2022-10-16T09:54:48;20.20;73.80
64705;DHT22;51131;52.298;13.686;2022-10-16T09:57:15;20.20;73.90
64705;DHT22;51131;52.298;13.686;2022-10-16T09:59:46;20.20;73.80
64705;DHT22;51131;52.298;13.686;2022-10-16T10:02:13;20.20;73.90
64705;DHT22;51131;52.298;13.686;2022-10-16T10:04:43;20.20;74.00
64705;DHT22;51131;52.298;13.686;2022-10-16T10:07:19;20.20;73.90
64705;DHT22;51131;52.298;13.686;2022-10-16T10:09:47;20.20;74.00
64705;DHT22;51131;52.298;13.686;2022-10-16T10:12:16;20.60;74.30
64705;DHT22;51131;52.298;13.686;2022-10-16T10:14:57;20.20;73.70
64705;DHT22;51131;52.298;13.686;2022-10-16T10:17:26;20.20;73.70
64705;DHT22;51131;52.298;13.686;2022-10-16T10:19:54;20.20;73.80
64705;DHT22;51131;52.298;13.686;2022-10-16T10:22:26;20.70;74.30
64705;DHT22;51131;52.298;13.686;2022-10-16T10:24:56;20.20;73.80
64705;DHT22;51131;52.298;13.686;2022-10-16T10:27:26;20.20;73.90
64705;DHT22;51131;52.298;13.686;2022-10-16T10:35:38;20.30;73.90
64705;DHT22;51131;52.298;13.686;2022-10-16T10:45:54;20.20;73.80
64705;DHT22;51131;52.298;13.686;2022-10-16T10:48:44;20.20;73.80
64705;DHT22;51131;52.298;13.686;2022-10-16T10:51:19;20.20;73.90
64705;DHT22;51131;52.298;13.686;2022-10-16T11:04:35;20.20;73.80
64705;DHT22;51131;52.298;13.686;2022-10-16T11:07:07;20.20;73.80
64705;DHT22;51131;52.298;13.686;2022-10-16T11:09:38;20.20;73.80
64705;DHT22;51131;52.298;13.686;2022-10-16T11:12:39;20.50;74.20
64705;DHT22;51131;52.298;13.686;2022-10-16T11:15:14;20.20;74.10
64705;DHT22;51131;52.298;13.686;2022-10-16T11:17:50;20.20;73.70
64705;DHT22;51131;52.298;13.686;2022-10-16T11:20:20;20.20;73.70
64705;DHT22;51131;52.298;13.686;2022-10-16T11:22:58;20.20;73.70
64705;DHT22;51131;52.298;13.686;2022-10-16T11:25:28;20.20;73.70
64705;DHT22;51131;52.298;13.686;2022-10-16T11:28:03;20.20;73.70
64705;DHT22;51131;52.298;13.686;2022-10-16T11:30:38;20.20;73.80
64705;DHT22;51131;52.298;13.686;2022-10-16T11:38:02;20.20;73.80
64705;DHT22;51131;52.298;13.686;2022-10-16T11:40:33;20.20;73.70
64705;DHT22;51131;52.298;13.686;2022-10-16T11:45:47;20.20;73.60
64705;DHT22;51131;52.298;13.686;2022-10-16T11:48:30;20.20;73.70
64705;DHT22;51131;52.298;13.686;2022-10-16T11:51:06;20.20;73.70
64705;DHT22;51131;52.298;13.686;2022-10-16T11:56:03;20.30;73.80
64705;DHT22;51131;52.298;13.686;2022-10-16T12:08:21;20.20;73.80
64705;DHT22;51131;52.298;13.686;2022-10-16T12:10:51;20.10;73.90
64705;DHT22;51131;52.298;13.686;2022-10-16T12:13:38;20.10;73.90
64705;DHT22;51131;52.298;13.686;2022-10-16T12:16:06;20.10;73.80
64705;DHT22;51131;52.298;13.686;2022-10-16T12:18:33;20.20;74.10
64705;DHT22;51131;52.298;13.686;2022-10-16T12:21:00;20.10;74.00
64705;DHT22;51131;52.298;13.686;2022-10-16T12:23:32;20.10;74.00
64705;DHT22;51131;52.298;13.686;2022-10-16T12:25:59;20.30;74.20
64705;DHT22;51131;52.298;13.686;2022-10-16T12:28:27;20.10;74.60
64705;DHT22;51131;52.298;13.686;2022-10-16T12:31:04;20.10;73.80
64705;DHT22;51131;52.298;13.686;2022-10-16T12:33:36;20.10;74.00
64705;DHT22;51131;52.298;13.686;2022-10-16T12:36:04;20.10;73.90
64705;DHT22;51131;52.298;13.686;2022-10-16T12:38:38;20.10;74.00
64705;DHT22;51131;52.298;13.686;2022-10-16T12:41:11;20.00;73.90
64705;DHT22;51131;52.298;13.686;2022-10-16T12:43:41;20.00;73.90
64705;DHT22;51131;52.298;13.686;2022-10-16T12:48:39;20.00;73.90
64705;DHT22;51131;52.298;13.686;2022-10-16T12:54:04;20.10;73.50
64705;DHT22;51131;52.298;13.686;2022-10-16T13:02:17;20.20;73.30
64705;DHT22;51131;52.298;13.686;2022-10-16T13:07:44;20.20;72.90
64705;DHT22;51131;52.298;13.686;2022-10-16T13:17:59;20.30;72.70
64705;DHT22;51131;52.298;13.686;2022-10-16T13:20:46;20.30;72.80
64705;DHT22;51131;52.298;13.686;2022-10-16T13:28:27;20.30;72.80
64705;DHT22;51131;52.298;13.686;2022-10-16T13:30:59;20.20;72.70
64705;DHT22;51131;52.298;13.686;2022-10-16T13:33:31;20.30;72.70
64705;DHT22;51131;52.298;13.686;2022-10-16T13:35:58;20.30;72.70
64705;DHT22;51131;52.298;13.686;2022-10-16T13:38:26;20.70;73.10
64705;DHT22;51131;52.298;13.686;2022-10-16T13:40:57;20.30;72.80
64705;DHT22;51131;52.298;13.686;2022-10-16T13:43:31;20.30;72.70
64705;DHT22;51131;52.298;13.686;2022-10-16T13:46:02;20.30;72.80
64705;DHT22;51131;52.298;13.686;2022-10-16T13:48:30;20.30;72.80
64705;DHT22;51131;52.298;13.686;2022-10-16T13:53:26;20.20;72.60
64705;DHT22;51131;52.298;13.686;2022-10-16T13:55:53;20.60;73.00
64705;DHT22;51131;52.298;13.686;2022-10-16T13:58:20;20.20;72.60
64705;DHT22;51131;52.298;13.686;2022-10-16T14:00:56;20.50;73.00
64705;DHT22;51131;52.298;13.686;2022-10-16T14:03:23;20.20;72.70
64705;DHT22;51131;52.298;13.686;2022-10-16T14:05:54;20.20;72.70
64705;DHT22;51131;52.298;13.686;2022-10-16T14:08:22;20.20;72.70
64705;DHT22;51131;52.298;13.686;2022-10-16T14:10:50;20.20;72.70
64705;DHT22;51131;52.298;13.686;2022-10-16T14:13:18;20.90;73.40
64705;DHT22;51131;52.298;13.686;2022-10-16T14:15:46;20.20;73.40
64705;DHT22;51131;52.298;13.686;2022-10-16T14:18:16;20.20;72.80
64705;DHT22;51131;52.298;13.686;2022-10-16T14:20:45;20.30;72.90
64705;DHT22;51131;52.298;13.686;2022-10-16T14:28:33;20.20;72.90
64705;DHT22;51131;52.298;13.686;2022-10-16T14:31:00;20.10;72.80
64705;DHT22;51131;52.298;13.686;2022-10-16T14:38:48;20.20;73.00
64705;DHT22;51131;52.298;13.686;2022-10-16T14:41:15;20.20;73.00
64705;DHT22;51131;52.298;13.686;2022-10-16T14:43:42;20.20;73.00
64705;DHT22;51131;52.298;13.686;2022-10-16T14:46:20;20.20;73.10
64705;DHT22;51131;52.298;13.686;2022-10-16T14:48:52;20.10;73.00
64705;DHT22;51131;52.298;13.686;2022-10-16T14:51:21;20.10;73.00
64705;DHT22;51131;52.298;13.686;2022-10-16T14:53:49;20.40;73.30
64705;DHT22;51131;52.298;13.686;2022-10-16T14:56:26;20.10;73.10
64705;DHT22;51131;52.298;13.686;2022-10-16T14:58:54;20.10;73.70
64705;DHT22;51131;52.298;13.686;2022-10-16T15:01:21;20.10;73.10
64705;DHT22;51131;52.298;13.686;2022-10-16T15:03:48;20.30;73.30
64705;DHT22;51131;52.298;13.686;2022-10-16T15:06:15;20.10;73.20
64705;DHT22;51131;52.298;13.686;2022-10-16T15:08:42;20.00;73.20
64705;DHT22;51131;52.298;13.686;2022-10-16T15:11:16;20.00;73.20
64705;DHT22;51131;52.298;13.686;2022-10-16T15:13:43;20.00;73.30
64705;DHT22;51131;52.298;13.686;2022-10-16T15:16:16;20.00;73.30
64705;DHT22;51131;52.298;13.686;2022-10-16T15:18:43;20.00;73.40
64705;DHT22;51131;52.298;13.686;2022-10-16T15:21:32;20.00;73.30
64705;DHT22;51131;52.298;13.686;2022-10-16T15:23:57;20.00;73.40
64705;DHT22;51131;52.298;13.686;2022-10-16T15:26:30;20.00;73.40
64705;DHT22;51131;52.298;13.686;2022-10-16T15:28:59;20.00;73.30
64705;DHT22;51131;52.298;13.686;2022-10-16T15:31:26;20.40;73.60
64705;DHT22;51131;52.298;13.686;2022-10-16T15:33:53;20.40;73.20
64705;DHT22;51131;52.298;13.686;2022-10-16T15:36:27;20.20;73.20
64705;DHT22;51131;52.298;13.686;2022-10-16T15:38:54;20.10;73.00
64705;DHT22;51131;52.298;13.686;2022-10-16T15:41:21;20.10;73.00
64705;DHT22;51131;52.298;13.686;2022-10-16T15:43:48;20.10;72.90
64705;DHT22;51131;52.298;13.686;2022-10-16T15:46:17;20.20;72.90
64705;DHT22;51131;52.298;13.686;2022-10-16T15:48:44;20.20;72.90
64705;DHT22;51131;52.298;13.686;2022-10-16T15:51:11;20.40;73.00
64705;DHT22;51131;52.298;13.686;2022-10-16T15:53:38;20.20;72.80
64705;DHT22;51131;52.298;13.686;2022-10-16T15:56:05;20.20;72.80
64705;DHT22;51131;52.298;13.686;2022-10-16T15:58:32;20.20;72.80
64705;DHT22;51131;52.298;13.686;2022-10-16T16:00:59;20.20;72.80
64705;DHT22;51131;52.298;13.686;2022-10-16T16:03:30;20.20;72.80
64705;DHT22;51131;52.298;13.686;2022-10-16T16:05:57;20.20;72.70
64705;DHT22;51131;52.298;13.686;2022-10-16T16:08:23;20.20;72.60
64705;DHT22;51131;52.298;13.686;2022-10-16T16:11:00;20.20;72.60
64705;DHT22;51131;52.298;13.686;2022-10-16T16:13:27;20.20;72.60
64705;DHT22;51131;52.298;13.686;2022-10-16T16:15:54;20.20;72.60
64705;DHT22;51131;52.298;13.686;2022-10-16T16:18:21;20.20;72.50
64705;DHT22;51131;52.298;13.686;2022-10-16T16:20:48;20.20;72.70
64705;DHT22;51131;52.298;13.686;2022-10-16T16:23:14;20.20;72.60
64705;DHT22;51131;52.298;13.686;2022-10-16T16:25:41;20.90;73.30
64705;DHT22;51131;52.298;13.686;2022-10-16T16:28:08;20.20;72.70
64705;DHT22;51131;52.298;13.686;2022-10-16T16:30:37;20.20;72.70
64705;DHT22;51131;52.298;13.686;2022-10-16T16:33:04;20.20;72.70
64705;DHT22;51131;52.298;13.686;2022-10-16T16:35:31;20.20;72.50
64705;DHT22;51131;52.298;13.686;2022-10-16T16:37:57;20.20;72.50
64705;DHT22;51131;52.298;13.686;2022-10-16T16:40:24;20.20;72.50
64705;DHT22;51131;52.298;13.686;2022-10-16T16:42:51;20.20;72.50
64705;DHT22;51131;52.298;13.686;2022-10-16T16:45:17;20.20;72.50
64705;DHT22;51131;52.298;13.686;2022-10-16T16:47:44;20.20;72.50
64705;DHT22;51131;52.298;13.686;2022-10-16T16:50:11;20.50;72.80
64705;DHT22;51131;52.298;13.686;2022-10-16T16:52:38;20.20;72.60
64705;DHT22;51131;52.298;13.686;2022-10-16T16:55:04;20.10;72.50
64705;DHT22;51131;52.298;13.686;2022-10-16T16:57:31;20.10;72.60
64705;DHT22;51131;52.298;13.686;2022-10-16T16:59:58;20.00;72.60
64705;DHT22;51131;52.298;13.686;2022-10-16T17:02:24;20.10;72.60
64705;DHT22;51131;52.298;13.686;2022-10-16T17:04:52;20.10;72.70